Language selection

My Weather Profile Weather Topics  | 

Cabot Strait - northern half: Past 24 Hour Conditions

 

East Chedabucto Bay - 44488

10:00 PM ADT 24 September 2022Buoy position: 45.45N 60.95W
Disclaimer

This table is a summary of hourly weather conditions for the past 24 hours.
Please note that these observations might not always be representative of weather conditions over their associated marine area.

Date / Time
(ADT)
Wind(knots) Wave height(m) Wave period(s) Pressure(kPa) Air tempC) Water tempC)
24 September 2022
22:00 WSW 22 gust 31 2.0 9.9 99.7 14 18
21:00 W 24 gust 30 1.9 8.8 99.6 14 18
20:00 SW 23 gust 30 2.1 8.5 99.4 14 18
19:00 WSW 26 gust 32 2.1 7.8 99.3 14 18
18:00 WSW 28 gust 36 2.3 8.4 99.0 14 18
17:00 WSW 31 gust 37 2.4 7.3 98.8 14 18
16:00 WSW 32 gust 38 2.6 8.0 98.6 14 18
15:00 WSW 34 gust 42 2.7 7.8 98.4 14 18
14:00 SW 35 gust 44 2.9 8.2 98.1 13 18
13:00 SW 35 gust 44 3.3 9.4 97.8 14 18
12:00 SW 37 gust 47 3.3 8.9 97.5 14 18
11:00 SW 39 gust 49 3.6 9.2 97.2 14 18
10:00 SW 42 gust 53 4.1 11.0 96.7 14 18
9:00 SSW 43 gust 53 4.3 9.4 96.2 14 18
8:00 SSW 48 gust 58 5.2 10.2 95.6 14 18
7:00 SSW 46 gust 57 5.8 11.3 95.0 15 18
6:00 SW 38 gust 47 7.7 12.6 94.3 17 18
5:00 WSW 17 gust 26 6.6 12.6 93.3 18 18
4:00 E 26 gust 33 7.9 12.0 93.4 17 18
3:00 ENE 30 gust 39 9.4 11.3 93.9 18 18
2:00 ENE 38 gust 54 7.6 9.9 94.5 18 18
1:00 ENE 45 gust 58 4.9 8.2 95.1 20 18
0:00 NE 45 gust 54 2.6 6.5 95.9 21 19
23 September 2022
23:00 NNE 40 gust 51 2.5 6.3 97.0 15 19
22:00 NNE 35 gust 45 1.8 5.5 98.0 16 19

Zoom-in to make a selection

Map of Atlantic - Newfoundland marine weather areas Banquereau - 44139 East Chedabucto Bay - 44488 West Chedabucto Bay - 44489 Blanc-Sablon Airport Cap Whittle Chevery Natashquan Airport Heath Point Îles de la Madeleine Airport Miscou Island Eskasoni (First Nations) Grand Étang Ingonish Beach North Mountain St.Paul Island J.A. Douglas McCurdy Sydney Airport Charlottetown Airport East Point North Cape Argentia Berry Hill Bonavista Burgeo Cape Race Corner Brook Daniel's Harbour Englee Ferolle Point La Scie Port aux Basques Sagona Island St. Anthony Airport St. John's Int'l Airport St. Lawrence Stephenville Airport Twillingate Winterland Branch Hill Wreckhouse Grates Cove Pool's Island Marticot Island Long Pond Cartwright Airport Mary's Harbour
Legend:
buoy Buoy
land station Land Station

Atlantic - Newfoundland Area

Another Region

What we are doing

Date modified: